Lindsey, Wisconsin
Current Conditions -  °F | °C
As of 9:54 AM on Tuesday 21 Oct 2014 (Local Time) from KMFI Reporting Station
Overcast Overcast  
Wind Chill: 37°   Ceiling: 1800
Heat Index: 43°   Visibility: 10mi
Dew Point: 35°   Wind: 12mph
Humidity: 74%   Direction: 100°E
Pressure: 30.22"   Gusts: NA
Location:  44.6413°N, 90.1945°W
Report Text: KMFI 211454Z AUTO 10010KT 10SM OVC018 06/02 A3022 RMK AO2 SLP243 T00610017 51017
Loading
Personal Weather Stations






























Interactive Weather Map
Tropical Storm Tracking
New forecast layout! Learn more

10-Day Weather Forecast

Advertisements
Track Severe Weather on mobile